createdAt,value
2023-03-02T00:02:04.636Z,27.93
2023-03-02T00:04:52.904Z,36.63
2023-03-02T00:07:33.587Z,29.37
2023-03-02T00:10:01.176Z,30.63
2023-03-02T00:12:29.546Z,30.70
2023-03-02T00:14:56.562Z,32.33
2023-03-02T00:17:29.234Z,29.00
2023-03-02T00:20:11.919Z,37.37
2023-03-02T00:22:45.015Z,35.70
2023-03-02T00:25:15.020Z,34.63
2023-03-02T00:27:42.457Z,26.83
2023-03-02T00:30:12.455Z,26.80
2023-03-02T00:32:39.796Z,29.13
2023-03-02T00:35:07.927Z,33.33
2023-03-02T00:37:38.915Z,29.80
2023-03-02T00:40:09.948Z,33.67
2023-03-02T00:42:37.904Z,25.80
2023-03-02T00:45:07.580Z,29.40
2023-03-02T00:47:36.847Z,34.73
2023-03-02T00:50:06.499Z,24.30
2023-03-02T00:52:34.087Z,33.13
2023-03-02T00:55:01.068Z,28.57
2023-03-02T00:57:28.499Z,28.97
2023-03-02T00:59:55.692Z,34.17
2023-03-02T01:02:22.845Z,33.70
2023-03-02T01:04:50.220Z,26.73
2023-03-02T01:07:21.653Z,28.40
2023-03-02T01:09:49.100Z,29.63
2023-03-02T01:12:16.586Z,30.80
2023-03-02T01:14:47.828Z,37.30
2023-03-02T01:17:15.796Z,29.37
2023-03-02T01:19:43.197Z,36.50
2023-03-02T01:22:10.761Z,28.70
2023-03-02T01:24:37.862Z,36.37
2023-03-02T01:27:05.023Z,39.70
2023-03-02T01:29:32.041Z,34.47
2023-03-02T01:31:59.109Z,37.70
2023-03-02T01:34:26.208Z,31.77
2023-03-02T01:36:53.198Z,30.67
2023-03-02T01:39:22.601Z,35.43
2023-03-02T01:41:52.322Z,32.33
2023-03-02T01:44:42.266Z,33.10
2023-03-02T01:47:24.314Z,31.87
2023-03-02T01:50:11.312Z,34.53
2023-03-02T01:52:39.231Z,31.30
2023-03-02T01:55:09.887Z,32.70
2023-03-02T01:57:44.043Z,37.07
2023-03-02T02:00:24.540Z,33.20
2023-03-02T02:02:53.450Z,36.53
2023-03-02T02:05:25.437Z,37.37
2023-03-02T02:07:52.404Z,42.17
2023-03-02T02:10:20.779Z,39.57
2023-03-02T02:12:47.996Z,43.07
2023-03-02T02:15:15.085Z,38.20
2023-03-02T02:17:42.839Z,35.87
2023-03-02T02:20:45.634Z,42.27
2023-03-02T02:24:08.115Z,35.20
2023-03-02T02:26:42.260Z,42.63
2023-03-02T02:29:19.725Z,40.57
2023-03-02T02:32:19.989Z,42.67
2023-03-02T02:34:59.126Z,42.00
2023-03-02T02:37:54.680Z,41.60
2023-03-02T02:40:46.721Z,42.43
2023-03-02T02:43:17.798Z,46.53
2023-03-02T02:45:47.606Z,36.57
2023-03-02T02:48:19.444Z,39.53
2023-03-02T02:50:47.689Z,42.93
2023-03-02T02:53:28.370Z,36.63
2023-03-02T02:55:58.900Z,39.63
2023-03-02T02:58:33.841Z,46.30
2023-03-02T03:01:02.309Z,41.03
2023-03-02T03:03:37.548Z,45.23
2023-03-02T03:06:12.989Z,42.73
2023-03-02T03:08:46.059Z,44.83
2023-03-02T03:11:23.723Z,45.57
2023-03-02T03:14:13.155Z,43.13
2023-03-02T03:16:44.018Z,43.90
2023-03-02T03:19:17.386Z,47.13
2023-03-02T03:21:45.508Z,47.63
2023-03-02T03:24:12.828Z,43.60
2023-03-02T03:26:40.013Z,46.33
2023-03-02T03:29:07.778Z,50.13
2023-03-02T03:31:35.509Z,42.93
2023-03-02T03:34:03.024Z,50.83
2023-03-02T03:36:31.455Z,46.67
2023-03-02T03:38:59.788Z,39.53
2023-03-02T03:41:27.827Z,52.87
2023-03-02T03:43:55.720Z,44.17
2023-03-02T03:46:23.206Z,53.77
2023-03-02T03:48:50.672Z,50.90
2023-03-02T03:51:18.036Z,48.23
2023-03-02T03:53:45.155Z,43.13
2023-03-02T03:56:12.972Z,48.00
2023-03-02T03:58:40.169Z,46.70
2023-03-02T04:01:07.656Z,49.80
2023-03-02T04:03:34.729Z,54.37
2023-03-02T04:06:01.634Z,46.80
2023-03-02T04:08:28.611Z,53.90
2023-03-02T04:10:55.675Z,44.13
2023-03-02T04:13:22.673Z,48.00
2023-03-02T04:15:49.846Z,47.30
2023-03-02T04:18:16.900Z,51.27
2023-03-02T04:20:43.897Z,47.27
2023-03-02T04:23:11.073Z,57.00
2023-03-02T04:25:38.096Z,56.43
2023-03-02T04:28:05.456Z,50.37
2023-03-02T04:30:33.529Z,50.00
2023-03-02T04:33:00.744Z,45.00
2023-03-02T04:35:27.973Z,54.40
2023-03-02T04:37:55.237Z,54.57
2023-03-02T04:40:22.519Z,54.07
2023-03-02T04:42:49.455Z,46.97
2023-03-02T04:45:18.456Z,53.60
2023-03-02T04:47:45.600Z,59.50
2023-03-02T04:50:15.164Z,51.60
2023-03-02T04:52:43.198Z,49.77
2023-03-02T04:55:20.304Z,54.07
2023-03-02T04:57:47.768Z,55.60
2023-03-02T05:00:17.168Z,57.87
2023-03-02T05:02:44.827Z,57.77
2023-03-02T05:05:23.553Z,58.93
2023-03-02T05:07:52.022Z,63.93
2023-03-02T05:10:23.914Z,51.13
2023-03-02T05:13:02.987Z,49.83
2023-03-02T05:15:34.352Z,55.90
2023-03-02T05:18:01.816Z,58.67
2023-03-02T05:20:30.589Z,57.93
2023-03-02T05:23:02.441Z,59.17
2023-03-02T05:25:33.028Z,55.10
2023-03-02T05:28:00.955Z,56.70
2023-03-02T05:30:29.308Z,53.00
2023-03-02T05:32:56.351Z,56.27
2023-03-02T05:35:23.623Z,61.50
2023-03-02T05:37:51.279Z,51.50
2023-03-02T05:40:21.223Z,56.17
2023-03-02T05:42:48.906Z,51.00
2023-03-02T05:45:32.964Z,52.47
2023-03-02T05:48:00.108Z,53.87
2023-03-02T05:50:27.556Z,59.23
2023-03-02T05:52:54.571Z,52.70
2023-03-02T05:55:21.810Z,54.57
2023-03-02T05:57:51.871Z,61.03
2023-03-02T06:00:20.354Z,57.57
2023-03-02T06:02:48.490Z,58.70
2023-03-02T06:05:19.447Z,56.90
2023-03-02T06:07:46.608Z,59.13
2023-03-02T06:10:15.132Z,62.37
2023-03-02T06:12:42.345Z,57.33
2023-03-02T06:15:10.469Z,63.03
2023-03-02T06:17:38.185Z,63.27
2023-03-02T06:20:11.560Z,67.43
2023-03-02T06:22:47.938Z,63.90
2023-03-02T06:25:19.393Z,58.50
2023-03-02T06:27:47.064Z,65.00
2023-03-02T06:30:19.066Z,66.67
2023-03-02T06:32:46.343Z,58.73
2023-03-02T06:35:14.240Z,60.60
2023-03-02T06:37:43.728Z,51.50
2023-03-02T06:40:14.312Z,57.43
2023-03-02T06:42:43.077Z,61.63
2023-03-02T06:45:11.751Z,60.67
2023-03-02T06:47:40.058Z,60.23
2023-03-02T06:50:08.195Z,57.17
2023-03-02T06:52:35.747Z,68.73
2023-03-02T06:55:04.291Z,55.03
2023-03-02T06:57:34.359Z,52.87
2023-03-02T07:00:25.969Z,54.33
2023-03-02T07:02:55.836Z,59.97
2023-03-02T07:05:25.066Z,61.47
2023-03-02T07:07:52.757Z,61.17
2023-03-02T07:10:20.283Z,55.67
2023-03-02T07:12:47.221Z,55.23
2023-03-02T07:15:14.682Z,56.80
2023-03-02T07:17:44.466Z,58.33
2023-03-02T07:20:18.243Z,53.57
2023-03-02T07:22:46.224Z,52.30
2023-03-02T07:25:14.166Z,56.70
2023-03-02T07:27:41.957Z,54.93
2023-03-02T07:30:10.573Z,52.20
2023-03-02T07:32:37.815Z,52.37
2023-03-02T07:35:05.430Z,54.37
2023-03-02T07:37:32.508Z,49.17
2023-03-02T07:40:00.802Z,49.30
2023-03-02T07:42:28.241Z,48.77
2023-03-02T07:44:55.927Z,49.63
2023-03-02T07:47:23.075Z,51.97
2023-03-02T07:49:50.096Z,52.50
2023-03-02T07:52:17.582Z,48.13
2023-03-02T07:54:44.522Z,54.63
2023-03-02T07:57:14.020Z,55.33
2023-03-02T07:59:41.010Z,46.73
2023-03-02T08:02:13.248Z,48.67
2023-03-02T08:04:40.677Z,51.67
2023-03-02T08:07:07.797Z,52.47
2023-03-02T08:09:35.234Z,45.57
2023-03-02T08:12:02.204Z,52.47
2023-03-02T08:14:29.144Z,50.13
2023-03-02T08:16:56.169Z,44.77
2023-03-02T08:19:23.117Z,50.40
2023-03-02T08:21:50.138Z,49.93
2023-03-02T08:24:17.154Z,50.13
2023-03-02T08:26:44.091Z,46.70
2023-03-02T08:29:11.105Z,42.70
2023-03-02T08:31:38.190Z,49.87
2023-03-02T08:34:06.440Z,53.20
2023-03-02T08:36:33.662Z,42.60
2023-03-02T08:39:00.996Z,45.87
2023-03-02T08:41:27.982Z,49.17
2023-03-02T08:43:57.050Z,44.00
2023-03-02T08:46:24.967Z,44.90
2023-03-02T08:48:52.305Z,45.80
2023-03-02T08:51:26.386Z,46.90
2023-03-02T08:53:55.577Z,42.17
2023-03-02T08:56:24.135Z,43.67
2023-03-02T08:58:53.642Z,44.30
2023-03-02T09:01:25.881Z,43.83
2023-03-02T09:03:53.276Z,38.37
2023-03-02T09:06:21.151Z,45.03
2023-03-02T09:08:49.118Z,42.63
2023-03-02T09:11:16.820Z,44.30
2023-03-02T09:13:44.287Z,40.53
2023-03-02T09:16:12.368Z,38.20
2023-03-02T09:21:25.689Z,37.40
2023-03-02T09:23:55.914Z,34.17
2023-03-02T09:26:22.889Z,41.73
2023-03-02T09:28:49.961Z,42.13
2023-03-02T09:31:17.054Z,41.40
2023-03-02T09:33:44.205Z,44.30
2023-03-02T09:36:16.347Z,38.00
2023-03-02T09:38:43.322Z,45.53
2023-03-02T09:41:19.642Z,38.20
2023-03-02T09:44:19.047Z,40.83
2023-03-02T09:46:50.257Z,38.23
2023-03-02T09:49:50.909Z,37.33
2023-03-02T09:52:45.230Z,35.10
2023-03-02T09:55:20.593Z,33.20
2023-03-02T09:57:47.955Z,38.13
2023-03-02T10:00:38.441Z,35.90
2023-03-02T10:03:22.641Z,38.90
2023-03-02T10:05:54.259Z,30.77
2023-03-02T10:08:26.234Z,35.27
2023-03-02T10:11:19.121Z,34.57
2023-03-02T10:14:03.075Z,29.10
2023-03-02T10:16:54.648Z,28.30
2023-03-02T10:19:25.298Z,29.53
2023-03-02T10:22:22.675Z,33.43
2023-03-02T10:25:04.467Z,30.70
2023-03-02T10:27:40.270Z,30.43
2023-03-02T10:30:35.562Z,27.80
2023-03-02T10:33:18.128Z,26.70
2023-03-02T10:35:53.375Z,26.60
2023-03-02T10:38:24.190Z,29.10
2023-03-02T10:41:09.011Z,31.53
2023-03-02T10:43:42.226Z,22.70
2023-03-02T10:46:12.338Z,30.00
2023-03-02T10:48:58.431Z,30.13
2023-03-02T10:51:31.713Z,26.00
2023-03-02T10:54:13.885Z,25.90
2023-03-02T10:56:52.229Z,29.50
2023-03-02T10:59:25.464Z,28.57
2023-03-02T11:02:25.576Z,29.03
2023-03-02T11:05:16.895Z,28.60
2023-03-02T11:07:55.454Z,24.03
2023-03-02T11:10:32.672Z,23.17
2023-03-02T11:13:02.099Z,24.23
2023-03-02T11:15:41.085Z,21.80
2023-03-02T11:18:40.946Z,22.03
2023-03-02T11:21:41.021Z,22.87
2023-03-02T11:24:39.751Z,23.70
2023-03-02T11:27:15.568Z,19.13
2023-03-02T11:30:09.263Z,19.53
2023-03-02T11:32:58.569Z,22.67
2023-03-02T11:35:34.888Z,20.23
2023-03-02T11:38:20.589Z,21.10
2023-03-02T11:41:12.434Z,20.73
2023-03-02T11:43:39.453Z,15.77
2023-03-02T11:46:22.226Z,20.73
2023-03-02T11:48:55.289Z,21.90
2023-03-02T11:51:57.845Z,19.70
2023-03-02T11:54:46.031Z,15.67
2023-03-02T11:57:51.244Z,21.13
2023-03-02T12:00:42.976Z,16.90
2023-03-02T12:03:16.128Z,16.33
2023-03-02T12:05:52.384Z,15.30
2023-03-02T12:08:19.337Z,16.47
2023-03-02T12:11:05.822Z,16.90
2023-03-02T12:13:37.224Z,20.27
2023-03-02T12:16:20.876Z,14.13
2023-03-02T12:18:52.311Z,17.23
2023-03-02T12:21:23.276Z,19.57
2023-03-02T12:23:50.193Z,16.70
2023-03-02T12:26:20.004Z,25.57
2023-03-02T12:29:08.178Z,18.90
2023-03-02T12:31:54.395Z,16.23
2023-03-02T12:34:24.495Z,21.93
2023-03-02T12:36:57.485Z,24.50
2023-03-02T12:40:06.337Z,19.70
2023-03-02T12:42:59.622Z,19.70
2023-03-02T12:45:36.290Z,16.87
2023-03-02T12:48:30.825Z,24.67
2023-03-02T12:51:05.250Z,20.90
2023-03-02T12:53:32.456Z,17.93
2023-03-02T12:55:59.478Z,18.33
2023-03-02T12:58:29.307Z,21.50
2023-03-02T13:01:03.089Z,21.97
2023-03-02T13:03:32.139Z,20.43
2023-03-02T13:06:15.412Z,23.40
2023-03-02T13:08:50.375Z,19.77
2023-03-02T13:11:28.517Z,18.70
2023-03-02T13:13:56.121Z,21.00
2023-03-02T13:16:27.710Z,22.80
2023-03-02T13:19:16.834Z,26.80
2023-03-02T13:21:44.387Z,29.00
2023-03-02T13:24:36.057Z,25.97
2023-03-02T13:27:18.222Z,21.83
2023-03-02T13:29:46.125Z,23.80
2023-03-02T13:32:36.447Z,22.13
2023-03-02T13:35:05.157Z,22.50
2023-03-02T13:37:44.272Z,24.70
2023-03-02T13:40:23.480Z,23.67
2023-03-02T13:42:51.488Z,23.03
2023-03-02T13:45:30.212Z,23.93
2023-03-02T13:48:01.287Z,24.47
2023-03-02T13:50:32.566Z,25.90
2023-03-02T13:53:05.628Z,24.33
2023-03-02T13:55:33.882Z,28.03
2023-03-02T13:58:02.069Z,22.60
2023-03-02T14:00:34.750Z,27.27
2023-03-02T14:03:02.292Z,22.50
2023-03-02T14:05:33.655Z,26.30
2023-03-02T14:08:01.160Z,22.47
2023-03-02T14:10:28.938Z,22.70
2023-03-02T14:13:08.832Z,26.00
2023-03-02T14:15:43.757Z,22.40
2023-03-02T14:18:36.978Z,22.47
2023-03-02T14:21:04.774Z,20.37
2023-03-02T14:23:31.982Z,21.63
2023-03-02T14:25:59.151Z,18.80
2023-03-02T14:28:33.465Z,25.70
2023-03-02T14:31:00.476Z,20.30
2023-03-02T14:33:27.614Z,24.47
2023-03-02T14:35:57.415Z,26.80
2023-03-02T14:38:28.100Z,22.60
2023-03-02T14:40:55.238Z,18.60
2023-03-02T14:43:24.079Z,23.60
2023-03-02T14:45:55.178Z,25.80
2023-03-02T14:48:22.444Z,20.00
2023-03-02T14:50:51.748Z,21.23
2023-03-02T14:53:30.013Z,21.80
2023-03-02T14:55:57.238Z,24.60
2023-03-02T14:58:35.081Z,25.37
2023-03-02T15:01:02.095Z,27.33
2023-03-02T15:03:29.591Z,29.50
2023-03-02T15:06:01.132Z,23.30
2023-03-02T15:08:29.651Z,24.50
2023-03-02T15:10:56.743Z,21.90
2023-03-02T15:13:23.741Z,23.33
2023-03-02T15:15:53.118Z,21.60
2023-03-02T15:18:20.167Z,23.10
2023-03-02T15:20:47.253Z,19.60
2023-03-02T15:23:14.183Z,22.50
2023-03-02T15:25:41.287Z,24.50
2023-03-02T15:28:08.507Z,22.97
2023-03-02T15:30:35.559Z,21.10
2023-03-02T15:33:02.500Z,22.30
2023-03-02T15:35:29.759Z,22.83
2023-03-02T15:37:58.465Z,24.07
2023-03-02T15:40:25.845Z,24.20
2023-03-02T15:42:53.400Z,26.33
2023-03-02T15:45:20.568Z,26.63
2023-03-02T15:47:47.500Z,27.83
2023-03-02T15:50:14.829Z,28.00
2023-03-02T15:52:42.528Z,25.10
2023-03-02T15:55:09.949Z,22.10
2023-03-02T15:57:39.449Z,24.40
2023-03-02T16:00:08.082Z,25.57
2023-03-02T16:02:35.816Z,25.23
2023-03-02T16:05:03.116Z,27.13
2023-03-02T16:07:30.822Z,25.97
2023-03-02T16:09:57.813Z,28.00
2023-03-02T16:12:26.747Z,25.27
2023-03-02T16:14:53.749Z,25.43
2023-03-02T16:17:20.879Z,29.60
2023-03-02T16:19:47.866Z,25.67
2023-03-02T16:22:15.442Z,30.80
2023-03-02T16:24:42.605Z,27.40
2023-03-02T16:27:09.640Z,30.97
2023-03-02T16:29:36.743Z,27.80
2023-03-02T16:32:03.985Z,28.77
2023-03-02T16:34:31.073Z,26.93
2023-03-02T16:36:58.143Z,23.13
2023-03-02T16:39:25.584Z,24.60
2023-03-02T16:41:52.844Z,28.57
2023-03-02T16:44:20.353Z,28.30
2023-03-02T16:46:47.385Z,26.23
2023-03-02T16:49:16.185Z,25.03
2023-03-02T16:51:43.532Z,28.70
2023-03-02T16:54:10.991Z,26.37
2023-03-02T16:56:37.988Z,31.33
2023-03-02T16:59:05.084Z,23.77
2023-03-02T17:01:32.076Z,27.67
2023-03-02T17:03:59.295Z,25.83
2023-03-02T17:06:26.740Z,26.23
2023-03-02T17:08:53.954Z,27.37
2023-03-02T17:11:21.683Z,32.27
2023-03-02T17:13:49.244Z,22.87
2023-03-02T17:16:17.099Z,23.20
2023-03-02T17:18:47.410Z,24.60
2023-03-02T17:21:17.398Z,21.50
2023-03-02T17:23:48.234Z,21.43
2023-03-02T17:26:17.188Z,25.43
2023-03-02T17:28:44.206Z,24.77
2023-03-02T17:31:11.565Z,21.73
2023-03-02T17:33:39.839Z,25.73
2023-03-02T17:36:12.335Z,24.20
2023-03-02T17:38:40.863Z,25.27
2023-03-02T17:41:09.788Z,23.10
2023-03-02T17:43:41.481Z,23.83
2023-03-02T17:46:28.511Z,21.73
2023-03-02T17:48:58.204Z,26.20
2023-03-02T17:51:27.686Z,20.83
2023-03-02T17:53:56.863Z,28.23
2023-03-02T17:56:27.335Z,22.20
2023-03-02T17:59:02.153Z,19.77
2023-03-02T18:01:30.587Z,26.13
2023-03-02T18:03:58.492Z,19.93
2023-03-02T18:06:26.115Z,22.90
2023-03-02T18:08:53.199Z,18.93
2023-03-02T18:11:23.964Z,18.43
2023-03-02T18:13:56.827Z,24.83
2023-03-02T18:16:28.065Z,22.63
2023-03-02T18:18:57.582Z,26.43
2023-03-02T18:21:24.658Z,16.30
2023-03-02T18:23:51.804Z,22.17
2023-03-02T18:26:23.864Z,20.60
2023-03-02T18:28:50.863Z,20.70
2023-03-02T18:31:19.381Z,22.20
2023-03-02T18:33:46.909Z,20.17
2023-03-02T18:36:14.594Z,20.87
2023-03-02T18:38:42.006Z,21.33
2023-03-02T18:41:10.328Z,23.27
2023-03-02T18:43:41.936Z,21.23
2023-03-02T18:46:23.936Z,23.03
2023-03-02T18:48:52.113Z,19.73
2023-03-02T18:51:21.364Z,21.40
2023-03-02T18:53:50.731Z,25.03
2023-03-02T18:56:18.844Z,23.13
2023-03-02T18:58:46.825Z,23.80
2023-03-02T19:01:14.372Z,27.80
2023-03-02T19:03:42.066Z,22.13
2023-03-02T19:06:09.536Z,25.30
2023-03-02T19:08:51.975Z,30.33
2023-03-02T19:11:45.298Z,27.63
2023-03-02T19:14:17.849Z,23.57
2023-03-02T19:17:03.300Z,22.87
2023-03-02T19:19:55.384Z,25.07
2023-03-02T19:22:43.565Z,24.90
2023-03-02T19:28:27.902Z,22.40
2023-03-02T19:31:28.376Z,23.80
2023-03-02T19:34:16.668Z,25.33
2023-03-02T19:37:18.077Z,24.80
2023-03-02T19:40:03.832Z,24.70
2023-03-02T19:42:53.260Z,23.80
2023-03-02T19:45:46.191Z,26.70
2023-03-02T19:48:46.683Z,22.37
2023-03-02T19:51:39.718Z,27.20
2023-03-02T19:54:24.903Z,26.67
2023-03-02T19:57:04.193Z,23.47
2023-03-02T19:59:48.163Z,21.50
2023-03-02T20:02:21.653Z,21.07
2023-03-02T20:05:04.219Z,22.20
2023-03-02T20:07:41.762Z,20.60
2023-03-02T20:10:48.257Z,25.00
2023-03-02T20:13:30.032Z,24.00
2023-03-02T20:16:08.626Z,22.33
2023-03-02T20:18:53.343Z,27.20
2023-03-02T20:21:37.053Z,20.90
2023-03-02T20:24:29.324Z,29.97
2023-03-02T20:27:09.055Z,22.43
2023-03-02T20:29:49.641Z,23.60
2023-03-02T20:32:34.032Z,22.70
2023-03-02T20:35:16.082Z,27.03
2023-03-02T20:37:55.488Z,28.23
2023-03-02T20:40:34.840Z,27.27
2023-03-02T20:43:15.157Z,24.27
2023-03-02T20:45:55.580Z,27.27
2023-03-02T20:48:38.786Z,27.73
2023-03-02T20:51:21.414Z,25.70
2023-03-02T20:54:04.250Z,28.43
2023-03-02T20:56:42.484Z,27.27
2023-03-02T20:59:10.522Z,26.30
2023-03-02T21:01:37.592Z,22.77
2023-03-02T21:04:04.894Z,31.10
2023-03-02T21:06:33.625Z,28.30
2023-03-02T21:09:07.875Z,30.83
2023-03-02T21:11:36.015Z,25.63
2023-03-02T21:14:04.159Z,26.73
2023-03-02T21:16:37.166Z,28.37
2023-03-02T21:19:13.159Z,27.37
2023-03-02T21:21:42.219Z,31.47
2023-03-02T21:24:19.233Z,27.47
2023-03-02T21:26:48.774Z,28.90
2023-03-02T21:29:18.142Z,32.83
2023-03-02T21:31:46.454Z,24.83
2023-03-02T21:34:15.130Z,29.50
2023-03-02T21:36:43.506Z,29.43
2023-03-02T21:39:12.164Z,30.43
2023-03-02T21:41:40.400Z,29.43
2023-03-02T21:44:07.822Z,32.00
2023-03-02T21:46:36.894Z,34.20
2023-03-02T21:49:04.592Z,32.73
2023-03-02T21:51:31.697Z,32.40
2023-03-02T21:53:58.697Z,27.30
2023-03-02T21:56:27.490Z,32.87
2023-03-02T21:58:57.581Z,27.47
2023-03-02T22:01:27.098Z,27.27
2023-03-02T22:03:54.452Z,29.40
2023-03-02T22:06:28.427Z,30.93
2023-03-02T22:08:57.273Z,33.43
2023-03-02T22:11:32.070Z,31.60
2023-03-02T22:14:03.832Z,35.77
2023-03-02T22:16:39.193Z,33.50
2023-03-02T22:19:27.455Z,41.27
2023-03-02T22:21:57.299Z,33.53
2023-03-02T22:24:34.777Z,32.23
2023-03-02T22:27:29.415Z,31.97
2023-03-02T22:29:59.700Z,35.10
2023-03-02T22:32:31.533Z,31.07
2023-03-02T22:35:07.864Z,29.07
2023-03-02T22:37:35.935Z,31.57
2023-03-02T22:40:18.506Z,23.27
2023-03-02T22:42:45.505Z,30.50
2023-03-02T22:45:21.940Z,28.90
2023-03-02T22:47:52.614Z,28.60
2023-03-02T22:50:29.931Z,33.87
2023-03-02T22:53:17.142Z,29.93
2023-03-02T22:55:44.218Z,35.07
2023-03-02T22:58:20.254Z,31.13
2023-03-02T23:00:48.595Z,30.17
2023-03-02T23:03:19.731Z,33.10
2023-03-02T23:05:51.285Z,31.83
2023-03-02T23:08:28.423Z,29.80
2023-03-02T23:10:58.752Z,28.27
2023-03-02T23:13:39.173Z,30.43
2023-03-02T23:16:26.366Z,30.30
2023-03-02T23:18:57.154Z,28.47
2023-03-02T23:21:29.232Z,31.37
2023-03-02T23:23:56.275Z,29.80
2023-03-02T23:26:23.413Z,30.03
2023-03-02T23:28:51.250Z,26.80
2023-03-02T23:31:18.563Z,29.90
2023-03-02T23:33:46.046Z,30.53
2023-03-02T23:36:14.547Z,29.53
2023-03-02T23:38:42.045Z,30.17
2023-03-02T23:41:10.074Z,32.07
2023-03-02T23:43:37.317Z,32.53
2023-03-02T23:46:04.785Z,29.70
2023-03-02T23:48:33.017Z,31.57
2023-03-02T23:51:01.105Z,31.60
2023-03-02T23:53:28.179Z,29.60
2023-03-02T23:55:55.980Z,32.37
2023-03-02T23:58:23.539Z,27.90
